Time;durP1;ratioP1;P1;durP2;ratioP2;P2;SDS_P1;SDS_P2;PMS_P1;PMS_P2;Temp;Humidity;BMP_temperature;BMP_pressure;BME280_temperature;BME280_humidity;BME280_pressure;Samples;Min_cycle;Max_cycle;Signal;HPM_P1;HPM_P2
2023/04/15 00:02:18;;;;;;;5.03;3.80;;;6.20;99.90;;;;;;5017531;28;20231;-65
2023/04/15 00:04:45;;;;;;;4.33;3.37;;;6.20;99.90;;;;;;5000225;28;20602;-66
2023/04/15 00:07:11;;;;;;;5.10;3.90;;;6.10;99.90;;;;;;5017660;28;20414;-66
2023/04/15 00:09:36;;;;;;;5.93;3.97;;;6.10;99.90;;;;;;5017471;28;20858;-66
2023/04/15 00:12:02;;;;;;;15.10;4.27;;;6.10;99.90;;;;;;5018230;28;20191;-66
2023/04/15 00:14:28;;;;;;;4.17;3.50;;;6.00;99.90;;;;;;5018106;28;20310;-66
2023/04/15 00:16:56;;;;;;;6.33;4.50;;;6.10;99.90;;;;;;5018210;28;20193;-66
2023/04/15 00:19:22;;;;;;;5.43;3.80;;;6.10;99.90;;;;;;5017384;28;20167;-66
2023/04/15 00:21:47;;;;;;;5.53;3.77;;;6.10;99.90;;;;;;5017469;28;20437;-66
2023/04/15 00:24:12;;;;;;;5.23;4.73;;;6.10;99.90;;;;;;5017767;28;20476;-66
2023/04/15 00:26:38;;;;;;;7.57;4.40;;;6.20;99.90;;;;;;5018566;28;20243;-66
2023/04/15 00:29:04;;;;;;;4.50;3.30;;;6.10;99.90;;;;;;5017993;28;20186;-66
2023/04/15 00:31:30;;;;;;;7.80;5.00;;;6.10;99.90;;;;;;5019081;28;20175;-66
2023/04/15 00:33:56;;;;;;;6.57;4.00;;;6.00;99.90;;;;;;5018997;28;20634;-66
2023/04/15 00:36:22;;;;;;;6.40;4.20;;;5.90;99.90;;;;;;5018297;28;20422;-66
2023/04/15 00:38:47;;;;;;;6.47;4.10;;;5.90;99.90;;;;;;5017932;28;20173;-66
2023/04/15 00:41:13;;;;;;;4.93;4.50;;;5.90;99.90;;;;;;5018165;28;20422;-66
2023/04/15 00:43:39;;;;;;;4.97;4.00;;;5.90;99.90;;;;;;5018185;28;20706;-66
2023/04/15 00:46:05;;;;;;;9.80;3.40;;;5.90;99.90;;;;;;5018406;28;20668;-66
2023/04/15 00:48:31;;;;;;;5.00;3.10;;;5.80;99.90;;;;;;4999684;28;20786;-66
2023/04/15 00:50:57;;;;;;;5.87;4.10;;;5.80;99.90;;;;;;5017948;28;20422;-66
2023/04/15 00:53:22;;;;;;;6.57;3.67;;;5.80;99.90;;;;;;5016870;28;20199;-66
2023/04/15 00:55:48;;;;;;;3.37;3.07;;;5.80;99.90;;;;;;5018262;28;20713;-66
2023/04/15 00:58:15;;;;;;;5.80;3.90;;;5.80;99.90;;;;;;5000187;28;20214;-66
2023/04/15 01:00:42;;;;;;;5.37;3.70;;;5.70;99.90;;;;;;5018119;28;20919;-66
2023/04/15 01:03:07;;;;;;;7.17;3.27;;;5.70;99.90;;;;;;5018118;28;20441;-66
2023/04/15 01:05:33;;;;;;;4.33;2.97;;;5.70;99.90;;;;;;5017887;28;20438;-66
2023/04/15 01:07:59;;;;;;;5.47;3.73;;;5.70;99.90;;;;;;5017712;28;20195;-66
2023/04/15 01:10:25;;;;;;;5.07;3.73;;;5.70;99.90;;;;;;5017344;28;20504;-66
2023/04/15 01:12:51;;;;;;;5.73;3.83;;;5.70;99.90;;;;;;5017615;28;20198;-66
2023/04/15 01:15:16;;;;;;;5.30;4.80;;;5.60;99.90;;;;;;5017725;28;20198;-66
2023/04/15 01:17:42;;;;;;;4.40;3.90;;;5.50;99.90;;;;;;5018268;28;20422;-66
2023/04/15 01:20:11;;;;;;;6.53;3.90;;;5.50;99.90;;;;;;5016622;28;20603;-66
2023/04/15 01:22:37;;;;;;;4.30;3.50;;;5.40;99.90;;;;;;5018048;28;20649;-66
2023/04/15 01:25:10;;;;;;;5.37;3.50;;;5.40;99.90;;;;;;5017436;28;20453;-66
2023/04/15 01:27:39;;;;;;;5.30;3.50;;;5.40;99.90;;;;;;5017717;28;20398;-66
2023/04/15 01:30:07;;;;;;;7.60;3.70;;;5.40;99.90;;;;;;5016791;28;20437;-66
2023/04/15 01:32:33;;;;;;;4.07;3.40;;;5.40;99.90;;;;;;5017386;28;20849;-66
2023/04/15 01:34:58;;;;;;;4.83;3.20;;;5.40;99.90;;;;;;5017531;28;20433;-66
2023/04/15 01:37:25;;;;;;;7.37;3.93;;;5.40;99.90;;;;;;5017338;28;20182;-66
2023/04/15 01:39:50;;;;;;;8.23;3.77;;;5.40;99.90;;;;;;5016633;28;20741;-66
2023/04/15 01:42:16;;;;;;;6.00;4.20;;;5.40;99.90;;;;;;5017955;28;20523;-66
2023/04/15 01:44:41;;;;;;;4.60;3.87;;;5.30;99.90;;;;;;5017388;28;20604;-67
2023/04/15 01:47:07;;;;;;;3.80;3.40;;;5.30;99.90;;;;;;5018114;28;20269;-66
2023/04/15 01:49:33;;;;;;;22.97;4.40;;;5.30;99.90;;;;;;5015647;28;20273;-66
2023/04/15 01:51:59;;;;;;;6.43;3.77;;;5.30;99.90;;;;;;5017038;28;20203;-66
2023/04/15 01:54:26;;;;;;;5.30;3.40;;;5.20;99.90;;;;;;5017007;28;20423;-66
2023/04/15 01:56:51;;;;;;;5.40;3.73;;;5.20;99.90;;;;;;5019809;28;20445;-65
2023/04/15 01:59:17;;;;;;;6.07;4.50;;;5.20;99.90;;;;;;5022780;28;20489;-65
2023/04/15 02:01:44;;;;;;;5.90;3.40;;;5.10;99.90;;;;;;5000494;28;20206;-66
2023/04/15 02:04:15;;;;;;;3.77;3.40;;;5.20;99.90;;;;;;5016204;28;20233;-66
2023/04/15 02:06:42;;;;;;;5.27;3.90;;;5.10;99.90;;;;;;5016962;28;20418;-66
2023/04/15 02:09:08;;;;;;;4.33;3.60;;;5.10;99.90;;;;;;5016744;28;20414;-67
2023/04/15 02:11:36;;;;;;;5.70;3.80;;;5.10;99.90;;;;;;5015986;28;20456;-66
2023/04/15 02:14:03;;;;;;;4.57;3.67;;;5.00;99.90;;;;;;5016006;28;20481;-66
2023/04/15 02:16:28;;;;;;;7.00;3.73;;;5.00;99.90;;;;;;5016587;28;20849;-66
2023/04/15 02:18:54;;;;;;;7.27;4.63;;;5.00;99.90;;;;;;5015348;28;20413;-66
2023/04/15 02:21:19;;;;;;;3.90;3.13;;;4.90;99.90;;;;;;4998263;28;20177;-66
2023/04/15 02:23:47;;;;;;;6.87;4.03;;;4.90;99.90;;;;;;5016053;28;20656;-65
2023/04/15 02:26:13;;;;;;;5.80;3.10;;;4.80;99.90;;;;;;4998487;28;20167;-66
2023/04/15 02:28:38;;;;;;;4.20;3.17;;;4.90;99.90;;;;;;5015547;28;20776;-66
2023/04/15 02:31:05;;;;;;;4.00;2.60;;;4.80;99.90;;;;;;5015873;28;20501;-66
2023/04/15 02:33:31;;;;;;;5.37;3.57;;;4.80;99.90;;;;;;5015892;28;20195;-66
2023/04/15 02:35:58;;;;;;;3.90;3.10;;;4.90;99.90;;;;;;5015352;28;20417;-66
2023/04/15 02:38:23;;;;;;;5.30;2.50;;;4.90;99.90;;;;;;5014501;28;20229;-66
2023/04/15 02:40:49;;;;;;;4.23;3.17;;;4.80;99.90;;;;;;5015928;28;20413;-66
2023/04/15 02:43:16;;;;;;;4.40;3.50;;;4.80;99.90;;;;;;5015431;28;20238;-66
2023/04/15 02:45:42;;;;;;;7.40;3.33;;;4.80;99.90;;;;;;5013628;28;20422;-66
2023/04/15 02:48:08;;;;;;;6.03;3.20;;;4.80;99.90;;;;;;5014896;28;20492;-66
2023/04/15 02:50:34;;;;;;;4.20;3.03;;;4.80;99.90;;;;;;5015325;28;20447;-66
2023/04/15 02:53:00;;;;;;;3.90;2.80;;;4.70;99.90;;;;;;5014907;28;20503;-66
2023/04/15 02:55:26;;;;;;;5.67;3.03;;;4.70;99.90;;;;;;5015467;28;20171;-66
2023/04/15 02:57:51;;;;;;;8.30;2.70;;;4.70;99.90;;;;;;5015456;28;20173;-66
2023/04/15 03:00:17;;;;;;;4.10;3.03;;;4.70;99.90;;;;;;5015157;28;20641;-66
2023/04/15 03:02:44;;;;;;;6.07;3.10;;;4.70;99.90;;;;;;5015650;28;20543;-66
2023/04/15 03:05:12;;;;;;;5.70;3.47;;;4.60;99.90;;;;;;5015570;28;20636;-66
2023/04/15 03:07:39;;;;;;;6.43;3.40;;;4.70;99.90;;;;;;5015599;28;20429;-66
2023/04/15 03:10:05;;;;;;;6.97;4.03;;;4.70;99.90;;;;;;5014977;28;20418;-66
2023/04/15 03:12:30;;;;;;;6.13;4.30;;;4.70;99.90;;;;;;5015758;28;20986;-66
2023/04/15 03:14:56;;;;;;;6.17;4.00;;;4.60;99.90;;;;;;5015497;28;20429;-67
2023/04/15 03:17:21;;;;;;;7.83;3.10;;;4.60;99.90;;;;;;5000754;28;20182;-66
2023/04/15 03:19:47;;;;;;;3.50;3.07;;;4.60;99.90;;;;;;5018378;28;20179;-66
2023/04/15 03:22:12;;;;;;;4.07;2.80;;;4.50;99.90;;;;;;5019454;28;20213;-67
2023/04/15 03:24:38;;;;;;;4.43;3.43;;;4.50;99.90;;;;;;5019394;28;20182;-65
2023/04/15 03:27:05;;;;;;;5.40;3.00;;;4.50;99.90;;;;;;5019144;28;20648;-66
2023/04/15 03:29:30;;;;;;;11.43;3.93;;;4.50;99.90;;;;;;5017954;28;20159;-66
2023/04/15 03:31:56;;;;;;;5.83;4.20;;;4.50;99.90;;;;;;5018692;28;20789;-66
2023/04/15 03:34:21;;;;;;;10.50;5.47;;;4.50;99.90;;;;;;5019600;28;20206;-66
2023/04/15 03:36:47;;;;;;;3.90;3.60;;;4.60;99.90;;;;;;5018873;28;20227;-66
2023/04/15 03:39:12;;;;;;;3.73;3.43;;;4.60;99.90;;;;;;5000786;28;20182;-66
2023/04/15 03:41:38;;;;;;;5.80;3.50;;;4.50;99.90;;;;;;5000736;28;20174;-66
2023/04/15 03:44:03;;;;;;;4.30;3.10;;;4.60;99.90;;;;;;5028694;23;20230;-67
2023/04/15 03:46:29;;;;;;;5.57;3.73;;;4.60;99.90;;;;;;5015234;28;20213;-67
2023/04/15 03:48:55;;;;;;;5.20;3.60;;;4.70;99.90;;;;;;5014640;28;20248;-67
2023/04/15 03:51:21;;;;;;;3.53;2.90;;;4.70;99.90;;;;;;5015243;28;20171;-67
2023/04/15 03:53:46;;;;;;;6.10;3.37;;;4.60;99.90;;;;;;5014991;28;20222;-67
2023/04/15 03:56:12;;;;;;;4.37;3.40;;;4.60;99.90;;;;;;5014885;28;20640;-67
2023/04/15 03:58:37;;;;;;;6.20;3.83;;;4.50;99.90;;;;;;5014266;28;20171;-67
2023/04/15 04:01:03;;;;;;;3.53;2.80;;;4.50;99.90;;;;;;5014813;28;20181;-67
2023/04/15 04:03:28;;;;;;;6.43;3.07;;;4.40;99.90;;;;;;5014690;28;20671;-67
2023/04/15 04:05:55;;;;;;;6.53;3.93;;;4.50;99.90;;;;;;5014925;28;20171;-67
2023/04/15 04:08:20;;;;;;;11.40;3.97;;;4.50;99.90;;;;;;5014007;28;20168;-67
2023/04/15 04:10:46;;;;;;;6.03;3.20;;;4.40;99.90;;;;;;5014605;28;20519;-67
2023/04/15 04:13:11;;;;;;;4.10;3.10;;;4.40;99.90;;;;;;5014453;28;20222;-67
2023/04/15 04:15:37;;;;;;;8.20;3.60;;;4.40;99.90;;;;;;5014580;28;20243;-66
2023/04/15 04:18:03;;;;;;;5.57;3.70;;;4.40;99.90;;;;;;5014412;28;20175;-67
2023/04/15 04:20:30;;;;;;;3.83;3.30;;;4.50;99.90;;;;;;5013789;28;20171;-67
2023/04/15 04:22:56;;;;;;;3.57;3.13;;;4.50;99.90;;;;;;5014387;28;20210;-67
2023/04/15 04:25:22;;;;;;;4.10;3.27;;;4.50;99.90;;;;;;5014292;28;20460;-67
2023/04/15 04:27:47;;;;;;;5.43;3.37;;;4.50;99.90;;;;;;5013322;28;20221;-67
2023/04/15 04:30:13;;;;;;;4.70;3.07;;;4.50;99.90;;;;;;5013569;28;20167;-67
2023/04/15 04:32:38;;;;;;;4.73;3.13;;;4.50;99.90;;;;;;5013830;28;20199;-67
2023/04/15 04:35:04;;;;;;;5.13;3.20;;;4.50;99.90;;;;;;5014250;28;20178;-66
2023/04/15 04:37:30;;;;;;;4.03;3.20;;;4.40;99.90;;;;;;5014142;28;20229;-67
2023/04/15 04:39:55;;;;;;;7.70;4.33;;;4.40;99.90;;;;;;5013376;28;20222;-67
2023/04/15 04:42:21;;;;;;;5.40;3.53;;;4.30;99.90;;;;;;5013856;28;20194;-67
2023/04/15 04:44:46;;;;;;;4.70;3.37;;;4.30;99.90;;;;;;5012367;28;20545;-67
2023/04/15 04:47:12;;;;;;;4.10;2.73;;;4.30;99.90;;;;;;5013952;28;20739;-67
2023/04/15 04:49:38;;;;;;;13.57;4.40;;;4.20;99.90;;;;;;5013155;28;20178;-67
2023/04/15 04:52:04;;;;;;;6.27;4.07;;;4.20;99.90;;;;;;5013674;28;20906;-67
2023/04/15 04:54:30;;;;;;;4.73;3.90;;;4.20;99.90;;;;;;5014027;28;20288;-67
2023/04/15 04:56:56;;;;;;;4.03;3.37;;;4.20;99.90;;;;;;5013830;28;20166;-67
2023/04/15 04:59:22;;;;;;;5.00;3.83;;;4.30;99.90;;;;;;5013012;28;20492;-67
2023/04/15 05:01:48;;;;;;;4.97;3.57;;;4.30;99.90;;;;;;5013730;28;20417;-67
2023/04/15 05:04:13;;;;;;;4.83;3.97;;;4.40;99.90;;;;;;5013519;28;20183;-67
2023/04/15 05:06:39;;;;;;;5.00;3.70;;;4.40;99.90;;;;;;5013593;28;20617;-67
2023/04/15 05:09:04;;;;;;;5.67;3.90;;;4.50;99.90;;;;;;5013054;28;20177;-66
2023/04/15 05:11:30;;;;;;;4.73;3.50;;;4.50;99.90;;;;;;5013495;28;20536;-66
2023/04/15 05:13:56;;;;;;;4.37;3.33;;;4.50;99.90;;;;;;5013426;28;20214;-67
2023/04/15 05:16:22;;;;;;;9.07;3.80;;;4.60;99.90;;;;;;5013399;28;20175;-67
2023/04/15 05:18:48;;;;;;;8.43;5.60;;;4.60;99.90;;;;;;5012605;28;20529;-67
2023/04/15 05:21:13;;;;;;;8.33;5.03;;;4.70;99.90;;;;;;5013367;28;20179;-67
2023/04/15 05:23:39;;;;;;;6.03;4.10;;;4.70;99.90;;;;;;5013278;28;20190;-67
2023/04/15 05:26:05;;;;;;;7.10;3.77;;;4.80;99.90;;;;;;5013344;28;20175;-67
2023/04/15 05:28:30;;;;;;;6.00;4.17;;;4.90;99.90;;;;;;5012446;28;20984;-67
2023/04/15 05:30:56;;;;;;;5.13;4.20;;;5.10;99.90;;;;;;5013154;28;20660;-67
2023/04/15 05:33:22;;;;;;;5.10;3.70;;;5.30;99.90;;;;;;5012862;28;20576;-67
2023/04/15 05:35:47;;;;;;;4.47;4.07;;;5.50;99.90;;;;;;5013063;28;20167;-67
2023/04/15 05:38:13;;;;;;;6.67;4.60;;;5.70;99.90;;;;;;5012328;28;20175;-68
2023/04/15 05:40:38;;;;;;;6.80;4.03;;;5.80;99.90;;;;;;5012751;28;20554;-67
2023/04/15 05:43:04;;;;;;;4.93;4.40;;;5.90;99.90;;;;;;5012788;28;20637;-67
2023/04/15 05:45:29;;;;;;;5.10;3.80;;;6.00;99.90;;;;;;5011253;28;20213;-67
2023/04/15 05:47:55;;;;;;;4.53;4.13;;;6.10;99.90;;;;;;5012725;28;20182;-67
2023/04/15 05:50:21;;;;;;;4.33;3.90;;;6.30;99.90;;;;;;5012182;28;20175;-68
2023/04/15 05:52:46;;;;;;;4.50;3.63;;;6.40;99.90;;;;;;5012670;28;20195;-68
2023/04/15 05:55:13;;;;;;;4.57;3.80;;;6.60;99.90;;;;;;5012881;28;20179;-67
2023/04/15 05:57:38;;;;;;;6.83;4.00;;;6.70;99.90;;;;;;5012785;28;20166;-67
2023/04/15 06:00:05;;;;;;;7.67;4.50;;;6.80;99.90;;;;;;5011914;28;20564;-67
2023/04/15 06:02:30;;;;;;;7.40;4.10;;;6.80;99.90;;;;;;5012514;28;20563;-67
2023/04/15 06:04:56;;;;;;;4.70;3.80;;;6.90;99.90;;;;;;5012835;28;20414;-67
2023/04/15 06:07:22;;;;;;;4.73;4.27;;;6.90;99.90;;;;;;5012585;28;20236;-67
2023/04/15 06:09:48;;;;;;;5.93;4.57;;;6.90;99.90;;;;;;5011878;28;20560;-67
2023/04/15 06:12:14;;;;;;;4.60;4.20;;;7.00;99.90;;;;;;5012422;28;20545;-67
2023/04/15 06:14:40;;;;;;;5.27;4.23;;;7.10;99.90;;;;;;5012468;28;20167;-67
2023/04/15 06:17:06;;;;;;;4.60;4.03;;;7.30;99.90;;;;;;5012423;28;20424;-67
2023/04/15 06:19:32;;;;;;;12.00;4.90;;;7.40;99.90;;;;;;5011660;28;20300;-67
2023/04/15 06:21:58;;;;;;;6.50;4.50;;;7.50;99.90;;;;;;5012464;28;20431;-67
2023/04/15 06:24:24;;;;;;;6.40;4.93;;;7.70;99.90;;;;;;5012403;28;20418;-68
2023/04/15 06:26:49;;;;;;;12.33;5.53;;;7.90;99.90;;;;;;5012387;28;20625;-67
2023/04/15 06:29:15;;;;;;;6.30;4.97;;;8.20;99.90;;;;;;5011524;28;20277;-68
2023/04/15 06:31:40;;;;;;;5.10;4.70;;;8.40;99.90;;;;;;5012194;28;20170;-67
2023/04/15 06:34:06;;;;;;;5.10;4.50;;;8.60;99.90;;;;;;5012065;28;20289;-67
2023/04/15 06:36:32;;;;;;;8.00;4.20;;;8.80;99.90;;;;;;5012283;28;20539;-68
2023/04/15 06:38:57;;;;;;;13.27;8.43;;;9.00;99.90;;;;;;5011516;28;20171;-67
2023/04/15 06:41:23;;;;;;;6.67;4.73;;;9.40;99.90;;;;;;5012161;28;20225;-68
2023/04/15 06:43:48;;;;;;;8.67;5.77;;;9.70;99.90;;;;;;5011303;28;20215;-68
2023/04/15 06:46:14;;;;;;;12.03;5.40;;;10.00;99.90;;;;;;5011220;28;20718;-68
2023/04/15 06:48:40;;;;;;;6.83;4.80;;;10.20;99.90;;;;;;5010648;28;20170;-68
2023/04/15 06:51:06;;;;;;;7.60;5.30;;;10.60;99.90;;;;;;5012041;28;20208;-67
2023/04/15 06:53:32;;;;;;;6.63;5.57;;;10.90;99.90;;;;;;5014626;28;20970;-67
2023/04/15 06:55:57;;;;;;;10.70;6.20;;;11.20;99.90;;;;;;5014771;28;20174;-67
2023/04/15 06:58:23;;;;;;;5.93;5.03;;;11.50;99.90;;;;;;5013858;28;20175;-68
2023/04/15 07:00:49;;;;;;;6.30;5.40;;;11.60;99.90;;;;;;5014654;28;20175;-68
2023/04/15 07:03:14;;;;;;;11.60;5.77;;;11.60;99.90;;;;;;5014517;28;20202;-68
2023/04/15 07:05:40;;;;;;;7.07;6.57;;;11.50;99.90;;;;;;5014589;28;20175;-66
2023/04/15 07:08:06;;;;;;;12.30;6.17;;;11.50;99.90;;;;;;5014481;28;20268;-66
2023/04/15 07:10:33;;;;;;;7.10;5.40;;;11.50;99.90;;;;;;5013899;28;20537;-66
2023/04/15 07:12:58;;;;;;;8.00;6.70;;;11.60;99.90;;;;;;5014251;28;20465;-66
2023/04/15 07:15:24;;;;;;;7.67;6.90;;;11.70;99.90;;;;;;5014264;28;20468;-66
2023/04/15 07:17:50;;;;;;;6.30;5.70;;;11.80;99.90;;;;;;4996679;28;20178;-66
2023/04/15 07:20:15;;;;;;;7.13;5.33;;;11.80;99.90;;;;;;5013656;28;20254;-66
2023/04/15 07:22:41;;;;;;;6.97;6.20;;;11.90;99.90;;;;;;5014372;28;20580;-67
2023/04/15 07:25:07;;;;;;;8.10;5.17;;;12.00;99.90;;;;;;5014245;28;20664;-67
2023/04/15 07:27:33;;;;;;;9.43;4.97;;;12.30;99.90;;;;;;5014114;28;20533;-65
2023/04/15 07:29:58;;;;;;;10.07;6.67;;;12.70;99.90;;;;;;5013455;28;20425;-69
2023/04/15 07:32:24;;;;;;;11.20;6.40;;;12.80;99.90;;;;;;5014020;28;20194;-69
2023/04/15 07:34:50;;;;;;;8.90;5.57;;;12.90;99.90;;;;;;5014071;28;20631;-69
2023/04/15 07:37:16;;;;;;;6.87;4.87;;;12.90;99.90;;;;;;5014027;28;20409;-66
2023/04/15 07:39:42;;;;;;;5.40;4.90;;;13.10;99.90;;;;;;5013339;28;20562;-66
2023/04/15 07:42:08;;;;;;;7.17;4.93;;;13.60;99.90;;;;;;4978565;28;1017124;-67
2023/04/15 07:44:33;;;;;;;5.97;5.27;;;14.00;99.90;;;;;;5015204;28;20418;-69
2023/04/15 07:46:59;;;;;;;5.67;4.63;;;14.10;99.90;;;;;;5015126;28;20178;-69
2023/04/15 07:49:24;;;;;;;5.73;5.20;;;14.40;99.90;;;;;;4996711;28;20179;-69
2023/04/15 07:51:50;;;;;;;5.37;4.87;;;14.90;99.90;;;;;;5015140;28;20672;-69
2023/04/15 07:54:16;;;;;;;9.57;4.70;;;15.10;99.90;;;;;;5014786;28;20264;-67
2023/04/15 07:56:41;;;;;;;4.60;3.90;;;15.60;99.90;;;;;;5014923;28;20174;-66
2023/04/15 07:59:08;;;;;;;4.97;3.20;;;15.90;96.50;;;;;;5014056;28;20298;-67
2023/04/15 08:01:34;;;;;;;5.37;3.70;;;15.90;94.20;;;;;;5014822;28;20166;-67
2023/04/15 08:04:00;;;;;;;4.47;3.47;;;15.70;95.90;;;;;;5014637;28;20819;-66
2023/04/15 08:06:26;;;;;;;5.90;4.60;;;15.50;95.50;;;;;;5015062;28;20171;-66
2023/04/15 08:08:53;;;;;;;6.40;4.73;;;15.10;95.90;;;;;;5014025;28;20179;-66
2023/04/15 08:11:19;;;;;;;5.47;4.40;;;14.70;97.00;;;;;;4996959;28;20433;-66
2023/04/15 08:13:45;;;;;;;7.83;4.73;;;14.40;98.20;;;;;;5014390;28;20454;-67
2023/04/15 08:16:23;;;;;;;8.97;5.20;;;14.30;98.80;;;;;;5014817;28;20694;-66
2023/04/15 08:18:50;;;;;;;9.83;4.97;;;14.00;98.70;;;;;;5013702;28;20785;-69
2023/04/15 08:21:17;;;;;;;5.17;4.67;;;13.90;99.20;;;;;;5014450;28;20421;-69
2023/04/15 08:23:43;;;;;;;5.80;4.77;;;13.90;99.60;;;;;;5014288;28;20481;-69
2023/04/15 08:26:09;;;;;;;6.97;4.50;;;14.20;99.20;;;;;;5014371;28;20476;-69
2023/04/15 08:28:36;;;;;;;5.50;5.00;;;14.80;98.60;;;;;;5013525;28;20887;-68
2023/04/15 08:31:02;;;;;;;5.20;3.30;;;15.50;97.40;;;;;;4997007;28;20589;-68
2023/04/15 08:33:28;;;;;;;6.87;4.27;;;16.10;93.30;;;;;;5014038;28;20556;-68
2023/04/15 08:35:53;;;;;;;6.43;4.00;;;16.40;92.60;;;;;;5014195;28;20445;-67
2023/04/15 08:38:19;;;;;;;5.20;4.80;;;16.40;91.90;;;;;;5013397;28;20171;-67
2023/04/15 08:40:45;;;;;;;4.80;3.40;;;16.60;90.10;;;;;;5013970;28;20174;-68
2023/04/15 08:43:25;;;;;;;4.23;3.80;;;16.50;88.30;;;;;;5013820;28;20305;-68
2023/04/15 08:45:51;;;;;;;4.23;3.50;;;16.50;88.90;;;;;;5014133;28;20432;-68
2023/04/15 08:48:17;;;;;;;6.13;4.43;;;16.50;85.80;;;;;;5015946;28;20457;-68
2023/04/15 08:50:45;;;;;;;3.47;3.17;;;16.80;85.90;;;;;;5025495;28;20425;-68
2023/04/15 08:53:11;;;;;;;3.40;3.10;;;17.30;81.10;;;;;;5022539;28;20464;-69
2023/04/15 08:55:44;;;;;;;4.80;3.50;;;17.70;77.80;;;;;;5026361;28;20418;-68
2023/04/15 08:58:11;;;;;;;3.40;3.10;;;18.10;76.70;;;;;;5004099;28;20468;-69
2023/04/15 09:00:40;;;;;;;3.20;2.90;;;18.30;74.10;;;;;;5027795;28;20497;-68
2023/04/15 09:03:07;;;;;;;4.03;2.50;;;18.10;70.70;;;;;;5029941;28;20497;-69
2023/04/15 09:05:36;;;;;;;3.50;3.20;;;18.00;70.20;;;;;;5013660;28;20939;-70
2023/04/15 09:08:03;;;;;;;2.83;2.63;;;18.40;69.60;;;;;;5032709;28;20440;-67
2023/04/15 09:10:30;;;;;;;2.90;2.70;;;19.10;66.40;;;;;;5031327;28;20449;-70
2023/04/15 09:12:56;;;;;;;4.70;3.20;;;19.00;65.10;;;;;;5012747;28;20480;-69
2023/04/15 09:15:26;;;;;;;3.20;2.83;;;18.60;63.70;;;;;;5021907;28;20425;-68
2023/04/15 09:17:52;;;;;;;3.20;2.87;;;18.40;64.30;;;;;;5026644;28;20418;-69
2023/04/15 09:20:18;;;;;;;3.40;2.80;;;18.40;63.80;;;;;;5027006;28;20432;-69
2023/04/15 09:22:47;;;;;;;8.27;3.00;;;18.30;65.00;;;;;;5008988;28;20198;-69
2023/04/15 09:25:22;;;;;;;5.73;3.57;;;19.10;63.30;;;;;;5026335;28;20426;-68
2023/04/15 09:27:51;;;;;;;4.50;3.00;;;19.80;63.50;;;;;;5024298;28;20428;-70
2023/04/15 09:30:17;;;;;;;5.03;3.10;;;20.60;60.40;;;;;;5012625;28;20422;-70
2023/04/15 09:32:52;;;;;;;3.83;2.63;;;20.70;57.00;;;;;;5012809;28;20573;-68
2023/04/15 09:35:18;;;;;;;4.00;2.60;;;20.80;57.20;;;;;;5013238;28;20950;-70
2023/04/15 09:37:44;;;;;;;2.87;2.67;;;20.80;56.60;;;;;;5016550;28;20418;-70
2023/04/15 09:40:11;;;;;;;4.23;2.80;;;20.70;56.60;;;;;;5012553;28;20508;-68
2023/04/15 09:42:52;;;;;;;3.47;3.17;;;20.60;56.50;;;;;;5028005;23;20198;-68
2023/04/15 09:45:18;;;;;;;3.60;2.90;;;20.50;55.80;;;;;;4975391;28;20501;-68
2023/04/15 09:47:44;;;;;;;3.20;2.90;;;21.00;55.20;;;;;;4993393;28;20411;-68
2023/04/15 09:50:10;;;;;;;5.50;2.67;;;21.60;54.00;;;;;;4992612;28;20167;-68
2023/04/15 09:52:42;;;;;;;3.13;2.90;;;21.20;53.90;;;;;;4993109;28;20426;-68
2023/04/15 09:55:07;;;;;;;3.30;3.00;;;20.90;53.20;;;;;;4993211;28;20431;-68
2023/04/15 09:57:35;;;;;;;4.60;3.13;;;20.60;52.40;;;;;;4993015;28;20419;-68
2023/04/15 10:00:02;;;;;;;3.40;3.10;;;20.50;53.20;;;;;;4992367;28;20537;-68
2023/04/15 10:02:28;;;;;;;3.90;3.60;;;20.50;53.10;;;;;;4992980;28;20415;-68
2023/04/15 10:04:54;;;;;;;3.33;3.10;;;20.50;52.80;;;;;;4992977;28;20418;-68
2023/04/15 10:07:22;;;;;;;3.77;3.33;;;20.30;53.10;;;;;;4993087;28;21198;-68
2023/04/15 10:09:48;;;;;;;3.17;2.70;;;19.50;54.10;;;;;;4992137;28;20783;-68
2023/04/15 10:12:16;;;;;;;6.23;3.20;;;19.20;54.50;;;;;;4992931;28;20414;-68
2023/04/15 10:14:43;;;;;;;5.03;3.60;;;18.90;54.60;;;;;;4992655;28;20221;-68
2023/04/15 10:17:11;;;;;;;4.67;3.07;;;18.60;54.60;;;;;;4992894;28;20863;-68
2023/04/15 10:19:37;;;;;;;6.80;4.17;;;18.50;54.00;;;;;;4992170;28;20422;-68
2023/04/15 10:22:03;;;;;;;4.80;3.30;;;18.60;54.80;;;;;;4992739;28;20505;-67
2023/04/15 10:24:32;;;;;;;6.63;4.80;;;18.10;53.50;;;;;;4992725;28;20477;-67
2023/04/15 10:27:03;;;;;;;4.63;3.43;;;17.80;55.80;;;;;;4992119;28;20951;-68
2023/04/15 10:29:29;;;;;;;5.13;3.47;;;18.10;56.00;;;;;;4992061;28;20943;-67
2023/04/15 10:31:59;;;;;;;3.27;3.00;;;18.40;56.60;;;;;;4992765;28;20436;-68
2023/04/15 10:34:28;;;;;;;4.33;4.03;;;18.80;55.60;;;;;;4992428;28;20716;-68
2023/04/15 10:37:02;;;;;;;9.13;4.20;;;18.70;56.20;;;;;;4992576;28;20416;-68
2023/04/15 10:39:42;;;;;;;3.73;3.43;;;18.50;57.40;;;;;;4991859;28;20410;-68
2023/04/15 10:42:18;;;;;;;7.93;4.83;;;17.90;57.10;;;;;;4992527;28;20426;-67
2023/04/15 10:44:55;;;;;;;5.37;4.80;;;18.30;58.10;;;;;;4992472;28;20502;-68
2023/04/15 10:47:21;;;;;;;3.73;3.43;;;19.30;55.80;;;;;;4992539;28;20426;-68
2023/04/15 10:49:49;;;;;;;6.33;4.33;;;19.80;54.00;;;;;;4991782;28;20771;-68
2023/04/15 10:52:17;;;;;;;5.17;4.77;;;19.80;54.30;;;;;;4992484;28;20177;-68
2023/04/15 10:54:43;;;;;;;5.50;4.63;;;19.90;54.40;;;;;;4992353;28;20473;-68
2023/04/15 10:57:15;;;;;;;5.97;5.47;;;19.90;55.30;;;;;;4992430;28;20862;-68
2023/04/15 11:00:07;;;;;;;4.90;4.40;;;19.70;55.80;;;;;;4991705;28;20413;-67
2023/04/15 11:02:40;;;;;;;6.47;4.40;;;19.00;56.10;;;;;;4992584;28;20486;-67
2023/04/15 11:05:06;;;;;;;4.97;4.07;;;18.80;56.80;;;;;;4992394;28;20423;-67
2023/04/15 11:07:39;;;;;;;4.77;4.00;;;18.50;57.20;;;;;;4992346;28;20859;-68
2023/04/15 11:10:17;;;;;;;4.63;4.10;;;18.60;58.10;;;;;;4991515;28;20410;-67
2023/04/15 11:12:44;;;;;;;5.50;4.80;;;18.30;58.20;;;;;;4992156;28;20453;-68
2023/04/15 11:15:39;;;;;;;6.00;4.03;;;18.00;58.10;;;;;;4992290;28;20447;-67
2023/04/15 11:18:10;;;;;;;5.33;4.70;;;17.60;59.70;;;;;;4992072;28;20830;-68
2023/04/15 11:20:37;;;;;;;5.10;4.70;;;17.20;64.50;;;;;;4991860;28;20429;-67
2023/04/15 11:23:04;;;;;;;5.10;4.40;;;16.80;65.40;;;;;;4992243;28;20442;-67
2023/04/15 11:25:32;;;;;;;4.60;4.20;;;16.60;65.00;;;;;;4992359;28;20514;-67
2023/04/15 11:27:59;;;;;;;5.13;4.57;;;16.90;63.10;;;;;;4992113;28;20502;-68
2023/04/15 11:30:29;;;;;;;6.07;3.50;;;17.30;62.10;;;;;;4991443;28;20430;-68
2023/04/15 11:33:00;;;;;;;4.40;4.00;;;18.00;61.00;;;;;;4992081;28;20458;-68
2023/04/15 11:35:25;;;;;;;4.07;3.60;;;19.50;57.20;;;;;;4992160;28;20515;-68
2023/04/15 11:37:51;;;;;;;4.33;3.53;;;21.60;54.20;;;;;;4993949;28;20498;-68
2023/04/15 11:40:22;;;;;;;7.90;4.40;;;21.60;52.30;;;;;;4995032;28;20538;-68
2023/04/15 11:43:07;;;;;;;4.00;3.60;;;21.40;51.90;;;;;;4995460;28;20231;-68
2023/04/15 11:45:33;;;;;;;5.33;4.60;;;20.20;52.60;;;;;;4995503;28;20422;-68
2023/04/15 11:48:09;;;;;;;7.27;4.67;;;18.90;54.70;;;;;;4977998;28;20423;-67
2023/04/15 11:50:37;;;;;;;4.10;3.80;;;18.00;57.50;;;;;;4995252;28;21189;-67
2023/04/15 11:53:04;;;;;;;5.20;4.80;;;17.40;59.80;;;;;;4995390;28;20466;-68
2023/04/15 11:55:30;;;;;;;4.80;4.33;;;18.10;60.50;;;;;;4995415;28;20427;-68
2023/04/15 11:58:11;;;;;;;9.60;4.53;;;20.40;56.00;;;;;;4995281;28;20501;-68
2023/04/15 12:00:39;;;;;;;5.63;3.43;;;21.60;50.60;;;;;;4995215;28;20415;-68
2023/04/15 12:03:17;;;;;;;4.93;4.43;;;21.50;49.40;;;;;;4995133;28;21202;-68
2023/04/15 12:06:02;;;;;;;4.37;3.57;;;21.90;50.00;;;;;;4995210;28;20418;-68
2023/04/15 12:08:50;;;;;;;4.23;3.83;;;21.90;49.70;;;;;;4994389;28;20939;-68
2023/04/15 12:11:35;;;;;;;5.93;4.40;;;21.30;49.70;;;;;;4995081;28;20422;-68
2023/04/15 12:14:19;;;;;;;8.17;4.50;;;20.60;51.10;;;;;;4994848;28;20458;-68
2023/04/15 12:16:48;;;;;;;5.33;4.30;;;20.70;50.40;;;;;;4995025;28;20423;-67
2023/04/15 12:19:15;;;;;;;5.10;4.33;;;20.50;50.00;;;;;;4994081;28;20473;-67
2023/04/15 12:21:44;;;;;;;7.70;4.60;;;21.30;51.00;;;;;;4994905;28;20430;-67
2023/04/15 12:24:11;;;;;;;5.43;4.80;;;21.60;50.20;;;;;;4994788;28;20434;-67
2023/04/15 12:26:52;;;;;;;4.80;4.37;;;21.80;49.00;;;;;;4994724;28;20430;-67
2023/04/15 12:29:18;;;;;;;5.43;4.93;;;21.60;49.20;;;;;;4994027;28;21014;-67
2023/04/15 12:31:49;;;;;;;7.13;5.57;;;20.90;50.50;;;;;;4994778;28;20786;-67
2023/04/15 12:34:15;;;;;;;9.70;5.13;;;20.70;50.50;;;;;;4994450;28;20466;-67
2023/04/15 12:36:41;;;;;;;4.30;3.90;;;21.30;48.90;;;;;;4977193;28;20450;-67
2023/04/15 12:39:06;;;;;;;3.77;3.50;;;22.50;47.80;;;;;;4993836;28;20430;-67
2023/04/15 12:41:32;;;;;;;3.53;3.30;;;23.00;49.10;;;;;;4994498;28;20206;-67
2023/04/15 12:43:58;;;;;;;6.03;3.30;;;22.60;50.00;;;;;;4994129;28;20645;-67
2023/04/15 12:46:24;;;;;;;4.47;3.47;;;21.60;51.20;;;;;;4994460;28;20258;-67
2023/04/15 12:48:52;;;;;;;5.10;4.20;;;20.60;53.30;;;;;;4992740;28;20673;-67
2023/04/15 12:51:17;;;;;;;7.00;4.90;;;20.10;54.70;;;;;;4994343;28;20936;-67